Seward, AK

1:38 PM AKDT on July 23, 2014 (GMT -0800)
Seward (PAWD) Elev 20 ft | 60.13 °N, 149.42 °W | Change Station

Current weather conditions updated 45 minutes ago

Overcast
Overcast
63 °F
Feels Like 63 °F
N
9
Wind Variable Wind from North

Today is forecast to be nearly the same temperature as yesterday. Chance of showers.

Today
High -- | Low -- °F
--% Chance of Precip.
Yesterday
High -- | Low -- °F
Precip. -- in
5:17 AM 10:49 PM
Waning Crescent, 8% visible
Pressure 29.83 in
Visibility 10.0 miles
Clouds Overcast 6000 ft
Dew Point 48 °F
Humidity 58%
Rainfall 0.03 in
Snow Depth 0 in , 7 in
UV 2 out of 12
Pollen Not available.
Air Quality Not available.
Flu Activity Not available.
METAR PAWD 232053Z AUTO 36008KT 10SM OVC060 17/09 A2982 RMK AO2 RAE07 SLP099 P0000 60000 T01720089 55002 TSNO

More Conditions Fewer Conditions

Pressure 29.83 in
Visibility 10.0 miles
Clouds Overcast 6000 ft
Dew Point 48 °F
Humidity 58%
Rainfall 0.03 in
Snow Depth 0 in , 7 in
UV 2 out of 12
Pollen Not available.
Air Quality Not available.
Flu Activity Not available.
METAR PAWD 232053Z AUTO 36008KT 10SM OVC060 17/09 A2982 RMK AO2 RAE07 SLP099 P0000 60000 T01720089 55002 TSNO

More Conditions Fewer Conditions

10-Day Weather Forecast

Almanac

Astronomy

Jul. 23, 2014 Rise Set
Actual Time 5:17 AM AKDT 10:49 PM AKDT
Civil Twilight 4:07 AM AKDT 11:57 PM AKDT
Nautical Twilight 2:36 AM AKDT 1:31 AM AKDT
Astronomical Twilight Sun does not rise Sun does not rise
Moon 2:53 AM AKDT 8:17 PM AKDT
Length of Visible Light 19h 49m
Length of Day
17h 32m
Tomorrow will be 4m 27s shorter.
Waning Crescent, 8% of the Moon is Illuminated
Today
Waning Crescent
Jul 26
New
Aug 3
First Quarter
Aug 10
Full
Aug 17
Last Quarter

Today's Extremes

State Highs State Lows

Community

WunderPhotos

Upload Photos

1,736,784 photos uploaded!

Nearby

Snow Depth

Station Depth Elevation
Grouse Creek Divide 0 in 700 ft
Cooper Lake 7 in 1200 ft
Summit Creek 0 in 1400 ft
Grandview 2 in 1100 ft
Turnagain Pass 0 in 1880 ft

Earthquake Activity

City Distance Mag. Time & Date
No recent earthquake activity has been reported nearby.
Minimum magnitude displayed is 2.5.

Coastal Water Temperatures

Place Temperature
No Stations Reporting

Nearby Weather Stations

Station Location Temp. Windchill Dew Point Humidity Wind Precip. Elev Updated Type
Oak Street Forest Acres Seward Alaska, Seward, AK 62.8 °F - 54 °F 73% North  at  0.0 mph 0.00 in / hr 144 ft 1:38 PM AKDT Rapid Fire
RAWS PEDERSEN LAGOON AK, Seward, AK 55 °F - 50 °F 85% ESE  at  4 mph 0.00 in / hr 625 ft 12:28 PM AKDT MADIS
RAWS KENAI LAKE AK, Moose Pass, AK 63 °F - 47 °F 56% North  at  1 mph 0.00 in / hr 470 ft 12:56 PM AKDT MADIS
RAWS HARDING ICEFIELD AK, Seward, AK 41 °F 35 °F 39 °F 94% WNW  at  10 mph 0.00 in / hr 4299 ft 12:43 PM AKDT MADIS

Show More Stations Show Fewer Stations